createdAt,value
2019-03-30T00:00:10.869Z,22.52
2019-03-30T00:02:40.289Z,22.45
2019-03-30T00:05:09.727Z,23.57
2019-03-30T00:07:39.715Z,23.38
2019-03-30T00:10:09.252Z,23.83
2019-03-30T00:12:38.695Z,23.12
2019-03-30T00:15:08.107Z,22.93
2019-03-30T00:17:37.543Z,26.70
2019-03-30T00:20:06.952Z,24.20
2019-03-30T00:22:36.497Z,22.85
2019-03-30T00:25:06.508Z,21.95
2019-03-30T00:27:35.961Z,19.25
2019-03-30T00:30:07.004Z,18.23
2019-03-30T00:32:36.328Z,19.42
2019-03-30T00:35:06.694Z,21.17
2019-03-30T00:37:36.018Z,19.37
2019-03-30T00:40:07.206Z,18.42
2019-03-30T00:42:52.831Z,18.82
2019-03-30T00:45:24.512Z,47.05
2019-03-30T00:48:09.960Z,30.97
2019-03-30T00:50:41.492Z,26.70
2019-03-30T00:53:33.016Z,22.65
2019-03-30T00:56:04.697Z,19.20
2019-03-30T00:58:50.060Z,19.60
2019-03-30T01:01:21.346Z,19.80
2019-03-30T01:03:52.558Z,20.75
2019-03-30T01:06:23.768Z,19.32
2019-03-30T01:09:10.293Z,18.80
2019-03-30T01:11:41.559Z,17.77
2019-03-30T01:14:13.089Z,18.05
2019-03-30T01:16:58.856Z,19.27
2019-03-30T01:19:30.069Z,20.45
2019-03-30T01:22:01.253Z,19.65
2019-03-30T01:24:32.465Z,23.73
2019-03-30T01:27:18.310Z,23.90
2019-03-30T01:29:49.522Z,20.20
2019-03-30T01:32:20.739Z,22.30
2019-03-30T01:34:51.944Z,22.00
2019-03-30T01:37:22.828Z,17.07
2019-03-30T01:40:08.947Z,20.32
2019-03-30T01:42:40.160Z,20.37
2019-03-30T01:45:11.345Z,24.52
2019-03-30T01:47:42.556Z,25.10
2019-03-30T01:50:17.729Z,28.70
2019-03-30T01:52:47.601Z,26.07
2019-03-30T01:55:33.243Z,24.87
2019-03-30T01:58:04.469Z,25.85
2019-03-30T02:00:35.682Z,25.82
2019-03-30T02:03:06.964Z,27.60
2019-03-30T02:05:52.712Z,27.25
2019-03-30T02:08:23.935Z,24.57
2019-03-30T02:10:55.117Z,24.60
2019-03-30T02:13:26.514Z,24.02
2019-03-30T02:16:18.195Z,27.70
2019-03-30T02:18:49.409Z,25.30
2019-03-30T02:21:18.832Z,27.55
2019-03-30T02:23:49.588Z,29.27
2019-03-30T02:26:19.093Z,29.87
2019-03-30T02:28:48.539Z,33.50
2019-03-30T02:31:17.953Z,33.80
2019-03-30T02:33:47.399Z,32.50
2019-03-30T02:36:16.812Z,30.17
2019-03-30T02:38:46.750Z,35.92
2019-03-30T02:41:16.184Z,36.17
2019-03-30T02:43:46.522Z,35.65
2019-03-30T02:46:15.957Z,35.17
2019-03-30T02:48:45.371Z,32.85
2019-03-30T02:51:14.818Z,21.37
2019-03-30T02:53:44.227Z,22.80
2019-03-30T02:56:14.477Z,23.60
2019-03-30T02:58:44.790Z,22.00
2019-03-30T03:01:14.584Z,21.12
2019-03-30T03:03:44.548Z,20.92
2019-03-30T03:06:14.488Z,21.10
2019-03-30T03:08:43.894Z,20.65
2019-03-30T03:11:13.638Z,19.62
2019-03-30T03:13:43.058Z,21.10
2019-03-30T03:16:12.791Z,25.30
2019-03-30T03:18:42.412Z,21.80
2019-03-30T03:21:11.853Z,23.10
2019-03-30T03:23:41.640Z,24.27
2019-03-30T03:26:11.688Z,24.43
2019-03-30T03:28:41.103Z,27.13
2019-03-30T03:31:10.697Z,28.07
2019-03-30T03:33:40.175Z,28.47
2019-03-30T03:36:09.664Z,31.20
2019-03-30T03:38:39.087Z,29.90
2019-03-30T03:41:08.608Z,33.28
2019-03-30T03:43:38.027Z,29.65
2019-03-30T03:46:07.476Z,29.60
2019-03-30T03:48:36.892Z,33.78
2019-03-30T03:51:24.493Z,32.45
2019-03-30T03:53:37.450Z,33.98
2019-03-30T03:56:06.899Z,31.90
2019-03-30T03:58:36.307Z,34.88
2019-03-30T04:01:05.760Z,33.80
2019-03-30T04:03:35.242Z,33.53
2019-03-30T04:06:05.717Z,38.60
2019-03-30T04:08:35.371Z,38.05
2019-03-30T04:11:04.894Z,37.42
2019-03-30T04:13:34.299Z,39.23
2019-03-30T04:16:03.735Z,39.90
2019-03-30T04:18:33.152Z,41.68
2019-03-30T04:21:02.683Z,47.38
2019-03-30T04:23:32.076Z,42.53
2019-03-30T04:26:01.527Z,49.03
2019-03-30T04:28:31.039Z,50.95
2019-03-30T04:31:00.496Z,50.43
2019-03-30T04:33:29.929Z,50.10
2019-03-30T04:35:59.347Z,49.45
2019-03-30T04:38:28.760Z,46.80
2019-03-30T04:40:58.204Z,48.23
2019-03-30T04:43:27.716Z,47.83
2019-03-30T04:45:57.159Z,48.73
2019-03-30T04:48:29.474Z,48.60
2019-03-30T04:50:57.749Z,50.83
2019-03-30T04:53:27.193Z,49.98
2019-03-30T04:55:56.606Z,46.73
2019-03-30T04:58:26.048Z,49.27
2019-03-30T05:00:55.496Z,51.63
2019-03-30T05:03:24.944Z,48.87
2019-03-30T05:05:54.365Z,51.55
2019-03-30T05:08:23.808Z,44.67
2019-03-30T05:10:53.217Z,41.42
2019-03-30T05:13:22.755Z,46.83
2019-03-30T05:15:52.267Z,43.58
2019-03-30T05:18:21.824Z,42.13
2019-03-30T05:20:51.234Z,41.80
2019-03-30T05:23:20.669Z,41.80
2019-03-30T05:25:50.185Z,42.48
2019-03-30T05:28:19.631Z,42.30
2019-03-30T05:30:49.040Z,41.75
2019-03-30T05:33:18.483Z,41.55
2019-03-30T05:35:47.897Z,43.20
2019-03-30T05:38:17.336Z,44.88
2019-03-30T05:40:46.749Z,44.33
2019-03-30T05:43:16.552Z,47.35
2019-03-30T05:45:45.967Z,47.27
2019-03-30T05:48:15.412Z,47.98
2019-03-30T05:50:45.228Z,51.70
2019-03-30T05:53:14.687Z,50.38
2019-03-30T05:55:44.104Z,47.83
2019-03-30T05:58:13.641Z,46.75
2019-03-30T06:00:43.127Z,44.98
2019-03-30T06:03:12.672Z,47.40
2019-03-30T06:05:42.471Z,43.78
2019-03-30T06:08:13.856Z,44.70
2019-03-30T06:10:43.278Z,43.20
2019-03-30T06:13:14.712Z,42.38
2019-03-30T06:15:44.423Z,41.98
2019-03-30T06:18:13.933Z,38.42
2019-03-30T06:20:43.384Z,39.38
2019-03-30T06:23:12.849Z,44.30
2019-03-30T06:25:42.735Z,44.33
2019-03-30T06:28:12.187Z,45.28
2019-03-30T06:30:41.594Z,43.08
2019-03-30T06:33:11.632Z,44.67
2019-03-30T06:35:41.045Z,45.08
2019-03-30T06:38:10.485Z,43.25
2019-03-30T06:40:39.908Z,41.58
2019-03-30T06:43:09.349Z,41.37
2019-03-30T06:45:38.762Z,47.08
2019-03-30T06:48:08.209Z,40.80
2019-03-30T06:50:37.627Z,46.02
2019-03-30T06:53:07.069Z,39.03
2019-03-30T06:55:36.522Z,39.05
2019-03-30T06:58:05.935Z,37.78
2019-03-30T07:00:35.446Z,36.38
2019-03-30T07:03:05.514Z,27.62
2019-03-30T07:05:42.519Z,25.60
2019-03-30T07:08:12.572Z,25.72
2019-03-30T07:10:43.668Z,22.87
2019-03-30T07:13:14.066Z,23.18
2019-03-30T07:15:47.304Z,21.80
2019-03-30T07:18:16.852Z,22.82
2019-03-30T07:20:46.293Z,21.00
2019-03-30T07:23:17.268Z,22.07
2019-03-30T07:25:46.707Z,20.37
2019-03-30T07:28:16.121Z,23.55
2019-03-30T07:30:45.560Z,21.97
2019-03-30T07:33:15.257Z,21.15
2019-03-30T07:35:44.704Z,20.60
2019-03-30T07:38:14.129Z,22.98
2019-03-30T07:40:43.653Z,21.80
2019-03-30T07:43:13.075Z,19.32
2019-03-30T07:45:42.518Z,16.75
2019-03-30T07:48:12.459Z,17.87
2019-03-30T07:50:41.915Z,17.50
2019-03-30T07:53:25.246Z,16.65
2019-03-30T07:55:43.708Z,17.12
2019-03-30T07:58:13.135Z,17.87
2019-03-30T08:00:42.584Z,16.50
2019-03-30T08:03:12.491Z,16.40
2019-03-30T08:05:41.944Z,15.58
2019-03-30T08:08:11.364Z,15.23
2019-03-30T08:10:40.832Z,15.65
2019-03-30T08:13:10.245Z,15.25
2019-03-30T08:15:39.985Z,15.93
2019-03-30T08:18:09.355Z,14.93
2019-03-30T08:20:38.836Z,15.78
2019-03-30T08:23:08.260Z,15.23
2019-03-30T08:25:37.747Z,15.43
2019-03-30T08:28:07.148Z,15.60
2019-03-30T08:30:36.609Z,16.27
2019-03-30T08:33:06.026Z,16.75
2019-03-30T08:35:35.481Z,20.23
2019-03-30T08:38:04.905Z,18.30
2019-03-30T08:40:34.509Z,19.27
2019-03-30T08:43:03.928Z,20.80
2019-03-30T08:45:33.377Z,20.35
2019-03-30T08:48:02.867Z,18.12
2019-03-30T08:50:32.325Z,16.93
2019-03-30T08:53:01.749Z,19.52
2019-03-30T08:55:31.201Z,16.12
2019-03-30T08:58:00.823Z,17.45
2019-03-30T09:00:42.924Z,15.58
2019-03-30T09:03:12.932Z,14.70
2019-03-30T09:05:42.996Z,16.48
2019-03-30T09:08:12.422Z,16.02
2019-03-30T09:10:41.860Z,15.40
2019-03-30T09:13:11.276Z,14.70
2019-03-30T09:15:41.448Z,14.20
2019-03-30T09:18:10.865Z,12.35
2019-03-30T09:20:40.313Z,14.05
2019-03-30T09:23:09.767Z,14.80
2019-03-30T09:25:39.205Z,14.40
2019-03-30T09:28:08.633Z,14.78
2019-03-30T09:30:38.089Z,13.98
2019-03-30T09:33:07.505Z,15.13
2019-03-30T09:35:36.963Z,15.90
2019-03-30T09:38:06.412Z,15.93
2019-03-30T09:40:35.909Z,15.23
2019-03-30T09:43:05.357Z,14.10
2019-03-30T09:45:34.776Z,14.40
2019-03-30T09:48:04.233Z,14.85
2019-03-30T09:50:33.653Z,15.95
2019-03-30T09:53:03.098Z,14.68
2019-03-30T09:55:32.518Z,14.80
2019-03-30T09:58:01.965Z,16.30
2019-03-30T10:00:31.384Z,15.32
2019-03-30T10:03:00.825Z,15.30
2019-03-30T10:05:30.277Z,15.30
2019-03-30T10:07:59.724Z,16.65
2019-03-30T10:10:29.147Z,16.57
2019-03-30T10:12:58.602Z,16.45
2019-03-30T10:15:28.017Z,15.13
2019-03-30T10:17:57.470Z,15.23
2019-03-30T10:20:26.895Z,14.47
2019-03-30T10:22:56.340Z,15.53
2019-03-30T10:25:25.785Z,16.80
2019-03-30T10:27:55.232Z,15.80
2019-03-30T10:30:24.650Z,16.55
2019-03-30T10:32:54.111Z,15.30
2019-03-30T10:35:23.540Z,15.23
2019-03-30T10:37:53.009Z,15.78
2019-03-30T10:40:22.433Z,14.73
2019-03-30T10:42:51.886Z,16.40
2019-03-30T10:45:21.309Z,15.55
2019-03-30T10:47:50.803Z,17.30
2019-03-30T10:50:20.508Z,17.30
2019-03-30T10:52:49.953Z,17.27
2019-03-30T10:55:19.368Z,15.48
2019-03-30T10:57:48.930Z,15.55
2019-03-30T11:00:33.525Z,17.17
2019-03-30T11:03:02.981Z,15.48
2019-03-30T11:05:32.599Z,17.02
2019-03-30T11:08:02.061Z,16.60
2019-03-30T11:10:31.479Z,18.07
2019-03-30T11:13:00.918Z,15.93
2019-03-30T11:15:33.782Z,15.98
2019-03-30T11:18:01.582Z,16.57
2019-03-30T11:20:31.001Z,17.25
2019-03-30T11:23:00.461Z,17.15
2019-03-30T11:25:29.871Z,17.05
2019-03-30T11:27:59.317Z,17.60
2019-03-30T11:30:28.736Z,17.82
2019-03-30T11:32:58.186Z,16.67
2019-03-30T11:35:27.597Z,18.02
2019-03-30T11:37:57.116Z,18.02
2019-03-30T11:40:26.538Z,17.87
2019-03-30T11:42:55.983Z,14.78
2019-03-30T11:45:25.401Z,18.55
2019-03-30T11:47:54.856Z,17.70
2019-03-30T11:50:24.711Z,18.12
2019-03-30T11:52:54.177Z,19.07
2019-03-30T11:55:25.245Z,18.37
2019-03-30T11:57:54.703Z,18.87
2019-03-30T12:00:24.123Z,19.87
2019-03-30T12:02:53.592Z,19.40
2019-03-30T12:05:23.039Z,20.70
2019-03-30T12:07:52.464Z,18.92
2019-03-30T12:10:21.916Z,18.95
2019-03-30T12:12:51.341Z,17.92
2019-03-30T12:15:20.781Z,19.02
2019-03-30T12:17:50.202Z,18.45
2019-03-30T12:20:19.661Z,17.17
2019-03-30T12:22:49.486Z,16.65
2019-03-30T12:25:18.962Z,16.65
2019-03-30T12:27:48.353Z,17.40
2019-03-30T12:30:18.289Z,19.30
2019-03-30T12:32:47.711Z,16.15
2019-03-30T12:35:17.476Z,16.95
2019-03-30T12:37:47.399Z,16.93
2019-03-30T12:40:16.862Z,18.70
2019-03-30T12:42:46.280Z,20.60
2019-03-30T12:45:16.100Z,20.08
2019-03-30T12:47:45.648Z,18.77
2019-03-30T12:50:15.093Z,17.60
2019-03-30T12:52:44.524Z,19.73
2019-03-30T12:55:14.506Z,18.98
2019-03-30T12:57:43.921Z,18.48
2019-03-30T13:00:13.373Z,17.32
2019-03-30T13:02:42.800Z,17.48
2019-03-30T13:05:15.217Z,19.23
2019-03-30T13:07:44.641Z,18.92
2019-03-30T13:10:14.494Z,19.55
2019-03-30T13:12:43.909Z,18.15
2019-03-30T13:15:13.361Z,19.55
2019-03-30T13:17:42.781Z,17.90
2019-03-30T13:20:12.232Z,17.75
2019-03-30T13:22:41.653Z,18.12
2019-03-30T13:25:11.101Z,19.25
2019-03-30T13:27:40.621Z,19.25
2019-03-30T13:30:10.134Z,19.15
2019-03-30T13:32:39.601Z,20.50
2019-03-30T13:35:09.006Z,18.87
2019-03-30T13:37:38.425Z,17.77
2019-03-30T13:40:07.946Z,19.25
2019-03-30T13:42:37.367Z,18.92
2019-03-30T13:45:07.176Z,18.65
2019-03-30T13:47:36.600Z,19.45
2019-03-30T13:50:06.341Z,18.50
2019-03-30T13:52:35.763Z,19.27
2019-03-30T13:55:06.077Z,17.95
2019-03-30T13:57:35.497Z,19.67
2019-03-30T14:00:08.049Z,18.40
2019-03-30T14:02:37.493Z,19.87
2019-03-30T14:05:06.952Z,19.15
2019-03-30T14:07:36.374Z,20.55
2019-03-30T14:10:06.969Z,19.65
2019-03-30T14:12:36.383Z,19.92
2019-03-30T14:15:09.202Z,19.05
2019-03-30T14:17:36.958Z,18.50
2019-03-30T14:20:08.033Z,15.75
2019-03-30T14:22:37.825Z,16.05
2019-03-30T14:25:07.440Z,14.73
2019-03-30T14:27:36.856Z,16.07
2019-03-30T14:30:09.542Z,14.68
2019-03-30T14:32:38.994Z,15.95
2019-03-30T14:35:08.415Z,14.23
2019-03-30T14:37:37.863Z,14.18
2019-03-30T14:40:07.968Z,15.08
2019-03-30T14:42:37.427Z,15.03
2019-03-30T14:45:07.480Z,14.53
2019-03-30T14:47:37.040Z,14.58
2019-03-30T14:50:08.006Z,15.78
2019-03-30T14:52:37.451Z,13.28
2019-03-30T14:55:08.498Z,13.50
2019-03-30T14:57:37.950Z,14.30
2019-03-30T15:00:09.814Z,13.03
2019-03-30T15:02:39.283Z,14.38
2019-03-30T15:05:08.700Z,14.33
2019-03-30T15:07:38.155Z,14.30
2019-03-30T15:10:08.317Z,13.08
2019-03-30T15:12:38.301Z,12.03
2019-03-30T15:15:08.965Z,12.80
2019-03-30T15:17:40.652Z,14.15
2019-03-30T15:20:10.325Z,12.47
2019-03-30T15:22:40.002Z,13.78
2019-03-30T15:25:09.760Z,15.05
2019-03-30T15:27:39.201Z,14.33
2019-03-30T15:30:08.625Z,15.58
2019-03-30T15:32:38.079Z,15.53
2019-03-30T15:35:07.505Z,14.53
2019-03-30T15:37:36.954Z,24.80
2019-03-30T15:40:06.751Z,16.80
2019-03-30T15:42:39.718Z,16.57
2019-03-30T15:45:10.638Z,13.45
2019-03-30T15:47:40.088Z,14.10
2019-03-30T15:50:09.511Z,13.93
2019-03-30T15:52:38.965Z,13.13
2019-03-30T15:55:08.383Z,13.62
2019-03-30T15:57:37.827Z,12.68
2019-03-30T16:00:14.510Z,11.80
2019-03-30T16:02:44.341Z,13.50
2019-03-30T16:05:15.778Z,11.60
2019-03-30T16:07:44.901Z,12.55
2019-03-30T16:10:14.325Z,12.68
2019-03-30T16:12:43.768Z,13.58
2019-03-30T16:15:13.196Z,15.63
2019-03-30T16:17:42.750Z,16.85
2019-03-30T16:20:12.165Z,16.35
2019-03-30T16:22:41.622Z,16.25
2019-03-30T16:25:11.037Z,18.25
2019-03-30T16:27:40.485Z,23.87
2019-03-30T16:30:09.905Z,22.48
2019-03-30T16:32:39.366Z,20.10
2019-03-30T16:35:08.787Z,21.65
2019-03-30T16:37:38.403Z,25.37
2019-03-30T16:40:07.829Z,28.80
2019-03-30T16:42:37.277Z,33.10
2019-03-30T16:45:07.139Z,33.88
2019-03-30T16:47:36.596Z,43.02
2019-03-30T16:50:08.152Z,43.63
2019-03-30T16:52:40.822Z,34.70
2019-03-30T16:55:08.781Z,41.23
2019-03-30T16:57:43.486Z,56.80
2019-03-30T17:00:09.393Z,76.80
2019-03-30T17:02:38.851Z,94.20
2019-03-30T17:05:08.326Z,57.95
2019-03-30T17:07:37.750Z,41.23
2019-03-30T17:10:08.220Z,41.20
2019-03-30T17:12:37.644Z,43.83
2019-03-30T17:15:08.803Z,38.42
2019-03-30T17:17:38.227Z,42.88
2019-03-30T17:20:07.921Z,36.28
2019-03-30T17:22:37.357Z,34.45
2019-03-30T17:25:07.071Z,31.25
2019-03-30T17:27:36.756Z,32.55
2019-03-30T17:30:08.149Z,32.05
2019-03-30T17:32:37.570Z,33.75
2019-03-30T17:35:07.025Z,32.85
2019-03-30T17:37:36.440Z,35.80
2019-03-30T17:40:08.822Z,37.30
2019-03-30T17:42:38.821Z,38.20
2019-03-30T17:45:09.417Z,41.48
2019-03-30T17:47:38.843Z,51.73
2019-03-30T17:50:09.176Z,54.35
2019-03-30T17:52:38.596Z,52.43
2019-03-30T17:55:09.125Z,60.45
2019-03-30T17:57:38.645Z,62.53
2019-03-30T18:00:09.914Z,60.38
2019-03-30T18:02:39.334Z,58.45
2019-03-30T18:05:08.785Z,59.98
2019-03-30T18:07:38.216Z,62.08
2019-03-30T18:10:07.664Z,58.48
2019-03-30T18:12:37.102Z,57.50
2019-03-30T18:15:07.589Z,56.00
2019-03-30T18:17:37.009Z,55.25
2019-03-30T18:20:06.734Z,52.15
2019-03-30T18:22:36.166Z,51.63
2019-03-30T18:25:06.196Z,53.58
2019-03-30T18:27:35.629Z,54.60
2019-03-30T18:30:07.774Z,53.15
2019-03-30T18:32:37.197Z,58.25
2019-03-30T18:35:06.722Z,54.75
2019-03-30T18:37:36.150Z,70.75
2019-03-30T18:40:06.941Z,73.37
2019-03-30T18:42:36.370Z,72.47
2019-03-30T18:45:06.764Z,71.80
2019-03-30T18:47:36.197Z,101.75
2019-03-30T18:50:06.986Z,67.50
2019-03-30T18:52:36.407Z,73.07
2019-03-30T18:55:06.800Z,59.83
2019-03-30T18:57:36.231Z,58.92
2019-03-30T19:00:07.554Z,64.82
2019-03-30T19:02:37.093Z,64.37
2019-03-30T19:05:06.781Z,67.37
2019-03-30T19:07:36.288Z,69.70
2019-03-30T19:10:06.399Z,63.08
2019-03-30T19:12:35.833Z,67.20
2019-03-30T19:15:06.359Z,59.23
2019-03-30T19:17:35.780Z,57.65
2019-03-30T19:20:06.677Z,69.37
2019-03-30T19:22:36.155Z,61.05
2019-03-30T19:25:06.717Z,59.88
2019-03-30T19:27:36.172Z,61.23
2019-03-30T19:30:09.478Z,66.53
2019-03-30T19:32:38.937Z,63.50
2019-03-30T19:35:09.987Z,61.55
2019-03-30T19:37:40.442Z,58.60
2019-03-30T19:40:09.876Z,63.38
2019-03-30T19:42:39.333Z,63.28
2019-03-30T19:45:08.855Z,56.63
2019-03-30T19:47:38.302Z,63.58
2019-03-30T19:50:07.722Z,62.30
2019-03-30T19:52:40.151Z,65.57
2019-03-30T19:55:08.301Z,71.37
2019-03-30T19:57:37.767Z,73.35
2019-03-30T20:00:10.630Z,66.90
2019-03-30T20:02:40.095Z,61.63
2019-03-30T20:05:09.518Z,61.40
2019-03-30T20:07:38.963Z,49.03
2019-03-30T20:10:08.388Z,70.85
2019-03-30T20:12:38.305Z,70.67
2019-03-30T20:15:08.195Z,85.42
2019-03-30T20:17:37.644Z,69.42
2019-03-30T20:20:07.332Z,72.70
2019-03-30T20:22:36.780Z,65.00
2019-03-30T20:25:09.706Z,63.68
2019-03-30T20:27:39.157Z,65.97
2019-03-30T20:30:09.409Z,67.10
2019-03-30T20:32:38.858Z,63.28
2019-03-30T20:35:08.660Z,61.95
2019-03-30T20:37:38.117Z,58.85
2019-03-30T20:40:07.978Z,59.23
2019-03-30T20:42:37.426Z,61.92
2019-03-30T20:45:06.968Z,67.80
2019-03-30T20:47:36.454Z,74.03
2019-03-30T20:50:06.613Z,69.15
2019-03-30T20:52:36.058Z,70.32
2019-03-30T20:55:05.948Z,69.05
2019-03-30T20:57:35.390Z,70.17
2019-03-30T21:00:07.446Z,67.92
2019-03-30T21:02:36.909Z,61.48
2019-03-30T21:05:06.805Z,61.48
2019-03-30T21:07:36.260Z,62.08
2019-03-30T21:10:08.448Z,70.25
2019-03-30T21:12:37.898Z,83.07
2019-03-30T21:15:07.320Z,83.47
2019-03-30T21:17:36.778Z,72.47
2019-03-30T21:20:06.465Z,74.12
2019-03-30T21:22:35.988Z,72.55
2019-03-30T21:25:05.884Z,72.22
2019-03-30T21:27:35.333Z,71.65
2019-03-30T21:30:09.173Z,74.92
2019-03-30T21:32:38.654Z,72.37
2019-03-30T21:35:08.081Z,82.08
2019-03-30T21:37:37.521Z,76.20
2019-03-30T21:40:07.005Z,72.20
2019-03-30T21:42:36.463Z,71.50
2019-03-30T21:45:07.349Z,76.57
2019-03-30T21:47:36.976Z,70.55
2019-03-30T21:50:07.264Z,79.40
2019-03-30T21:52:36.706Z,74.97
2019-03-30T21:55:06.153Z,80.35
2019-03-30T21:57:35.602Z,90.55
2019-03-30T22:00:10.499Z,92.82
2019-03-30T22:02:37.792Z,80.28
2019-03-30T22:05:07.244Z,74.87
2019-03-30T22:07:36.747Z,105.78
2019-03-30T22:10:09.212Z,81.28
2019-03-30T22:12:41.477Z,73.35
2019-03-30T22:15:11.090Z,87.27
2019-03-30T22:17:40.506Z,78.80
2019-03-30T22:20:09.969Z,91.47
2019-03-30T22:22:39.587Z,92.92
2019-03-30T22:25:09.058Z,86.47
2019-03-30T22:27:38.490Z,93.47
2019-03-30T22:30:07.939Z,108.27
2019-03-30T22:32:37.376Z,110.55
2019-03-30T22:35:06.830Z,96.65
2019-03-30T22:37:36.245Z,86.70
2019-03-30T22:40:05.936Z,90.67
2019-03-30T22:42:35.359Z,95.80
2019-03-30T22:45:05.956Z,95.53
2019-03-30T22:47:35.404Z,116.88
2019-03-30T22:50:07.403Z,204.38
2019-03-30T22:52:36.834Z,175.03
2019-03-30T22:55:06.831Z,161.60
2019-03-30T22:57:36.258Z,138.75
2019-03-30T23:00:09.673Z,147.32
2019-03-30T23:02:39.094Z,144.70
2019-03-30T23:05:08.558Z,140.18
2019-03-30T23:07:37.987Z,118.65
2019-03-30T23:10:07.435Z,114.28
2019-03-30T23:12:36.854Z,107.17
2019-03-30T23:15:06.312Z,94.65
2019-03-30T23:17:35.729Z,95.20
2019-03-30T23:20:06.122Z,87.62
2019-03-30T23:22:35.554Z,89.62
2019-03-30T23:25:06.735Z,86.15
2019-03-30T23:27:36.231Z,85.62
2019-03-30T23:30:07.320Z,82.42
2019-03-30T23:32:36.742Z,81.32
2019-03-30T23:35:06.527Z,89.30
2019-03-30T23:37:35.953Z,90.75
2019-03-30T23:40:05.941Z,96.53
2019-03-30T23:42:35.363Z,111.85
2019-03-30T23:45:05.457Z,94.83
2019-03-30T23:47:34.879Z,94.85
2019-03-30T23:50:05.863Z,84.37
2019-03-30T23:52:35.483Z,82.85
2019-03-30T23:55:05.877Z,79.60
2019-03-30T23:57:35.299Z,73.05
